createdAt,value
2018-02-03T00:00:09.086Z,5.35
2018-02-03T00:01:09.096Z,5.25
2018-02-03T00:02:09.094Z,5.25
2018-02-03T00:03:09.092Z,5.28
2018-02-03T00:04:09.099Z,5.23
2018-02-03T00:05:09.095Z,5.23
2018-02-03T00:06:09.104Z,5.20
2018-02-03T00:07:09.101Z,5.30
2018-02-03T00:08:09.120Z,5.31
2018-02-03T00:09:09.104Z,5.23
2018-02-03T00:10:09.108Z,5.23
2018-02-03T00:11:09.106Z,5.32
2018-02-03T00:12:09.112Z,5.25
2018-02-03T00:13:09.111Z,5.31
2018-02-03T00:14:09.118Z,5.38
2018-02-03T00:15:09.115Z,5.32
2018-02-03T00:16:09.117Z,5.34
2018-02-03T00:17:09.119Z,5.32
2018-02-03T00:18:09.152Z,5.35
2018-02-03T00:19:09.131Z,5.35
2018-02-03T00:20:09.129Z,5.38
2018-02-03T00:21:09.127Z,5.38
2018-02-03T00:22:09.140Z,5.32
2018-02-03T00:23:09.130Z,5.34
2018-02-03T00:24:09.141Z,5.38
2018-02-03T00:25:09.135Z,5.35
2018-02-03T00:26:09.186Z,5.31
2018-02-03T00:27:09.140Z,5.37
2018-02-03T00:28:09.145Z,5.40
2018-02-03T00:29:09.143Z,5.32
2018-02-03T00:30:09.147Z,5.30
2018-02-03T00:31:09.153Z,5.23
2018-02-03T00:32:09.150Z,5.25
2018-02-03T00:33:09.146Z,5.25
2018-02-03T00:34:09.149Z,5.28
2018-02-03T00:35:09.158Z,5.31
2018-02-03T00:36:09.159Z,5.25
2018-02-03T00:37:09.157Z,5.32
2018-02-03T00:38:09.160Z,5.34
2018-02-03T00:39:09.162Z,5.28
2018-02-03T00:40:09.167Z,5.32
2018-02-03T00:41:09.179Z,5.19
2018-02-03T00:42:09.168Z,5.19
2018-02-03T00:43:09.185Z,5.27
2018-02-03T00:44:09.173Z,5.31
2018-02-03T00:45:09.173Z,5.23
2018-02-03T00:46:09.179Z,5.25
2018-02-03T00:47:09.177Z,5.25
2018-02-03T00:48:09.182Z,5.31
2018-02-03T00:49:09.186Z,5.30
2018-02-03T00:50:09.188Z,5.20
2018-02-03T00:51:09.186Z,5.20
2018-02-03T00:52:09.190Z,5.20
2018-02-03T00:53:09.187Z,5.25
2018-02-03T00:54:09.191Z,5.25
2018-02-03T00:55:09.195Z,5.31
2018-02-03T00:56:09.195Z,5.25
2018-02-03T00:57:09.194Z,5.23
2018-02-03T00:58:09.198Z,5.22
2018-02-03T00:59:09.204Z,5.28
2018-02-03T01:00:09.203Z,5.25
2018-02-03T01:01:09.203Z,5.31
2018-02-03T01:02:09.207Z,5.25
2018-02-03T01:03:09.214Z,5.23
2018-02-03T01:04:09.230Z,5.17
2018-02-03T01:05:09.215Z,5.25
2018-02-03T01:06:09.218Z,5.17
2018-02-03T01:07:09.216Z,5.27
2018-02-03T01:08:09.219Z,5.17
2018-02-03T01:09:09.231Z,5.27
2018-02-03T01:10:09.223Z,5.13
2018-02-03T01:11:09.228Z,5.12
2018-02-03T01:12:09.226Z,5.10
2018-02-03T01:13:09.230Z,5.16
2018-02-03T01:14:09.233Z,5.10
2018-02-03T01:15:09.233Z,5.19
2018-02-03T01:16:09.243Z,5.19
2018-02-03T01:17:09.232Z,5.10
2018-02-03T01:18:09.238Z,5.22
2018-02-03T01:19:09.235Z,5.14
2018-02-03T01:20:09.243Z,5.25
2018-02-03T01:21:09.243Z,5.23
2018-02-03T01:22:09.246Z,5.34
2018-02-03T01:23:09.250Z,5.22
2018-02-03T01:24:09.249Z,5.19
2018-02-03T01:25:09.268Z,5.23
2018-02-03T01:26:09.266Z,5.27
2018-02-03T01:27:09.257Z,5.25
2018-02-03T01:28:10.040Z,5.25
2018-02-03T01:29:09.260Z,5.23
2018-02-03T01:30:09.265Z,5.19
2018-02-03T01:31:09.261Z,5.19
2018-02-03T01:32:09.263Z,5.22
2018-02-03T01:33:09.266Z,5.22
2018-02-03T01:34:09.268Z,5.22
2018-02-03T01:35:09.271Z,5.10
2018-02-03T01:36:09.277Z,5.12
2018-02-03T01:37:09.273Z,5.09
2018-02-03T01:38:09.280Z,5.14
2018-02-03T01:39:09.272Z,5.09
2018-02-03T01:40:09.278Z,5.07
2018-02-03T01:41:09.277Z,5.07
2018-02-03T01:42:09.282Z,4.99
2018-02-03T01:43:09.282Z,5.04
2018-02-03T01:44:09.288Z,5.10
2018-02-03T01:45:09.286Z,5.02
2018-02-03T01:46:09.289Z,4.99
2018-02-03T01:47:09.294Z,5.05
2018-02-03T01:48:09.298Z,5.01
2018-02-03T01:49:09.298Z,4.99
2018-02-03T01:50:09.301Z,5.02
2018-02-03T01:51:09.300Z,5.02
2018-02-03T01:52:09.300Z,4.95
2018-02-03T01:53:09.312Z,4.91
2018-02-03T01:54:09.306Z,4.91
2018-02-03T01:55:09.313Z,4.86
2018-02-03T01:56:09.306Z,4.91
2018-02-03T01:57:09.315Z,4.86
2018-02-03T01:58:09.315Z,4.92
2018-02-03T01:59:09.315Z,4.89
2018-02-03T02:00:09.313Z,4.89
2018-02-03T02:01:09.315Z,4.84
2018-02-03T02:02:09.319Z,4.75
2018-02-03T02:03:09.326Z,4.75
2018-02-03T02:04:09.320Z,4.77
2018-02-03T02:05:09.326Z,4.88
2018-02-03T02:06:09.328Z,4.89
2018-02-03T02:07:09.325Z,4.89
2018-02-03T02:08:09.332Z,4.89
2018-02-03T02:09:09.333Z,4.89
2018-02-03T02:10:09.346Z,4.92
2018-02-03T02:11:09.357Z,4.91
2018-02-03T02:12:09.339Z,4.86
2018-02-03T02:13:09.342Z,4.84
2018-02-03T02:14:09.348Z,4.77
2018-02-03T02:15:09.344Z,4.77
2018-02-03T02:16:09.345Z,4.79
2018-02-03T02:17:09.342Z,4.80
2018-02-03T02:18:09.343Z,4.73
2018-02-03T02:19:09.349Z,4.84
2018-02-03T02:20:09.355Z,4.73
2018-02-03T02:21:09.356Z,4.72
2018-02-03T02:22:09.353Z,4.72
2018-02-03T02:23:09.356Z,4.75
2018-02-03T02:24:09.366Z,4.65
2018-02-03T02:25:09.360Z,4.64
2018-02-03T02:26:09.358Z,4.55
2018-02-03T02:27:09.367Z,4.64
2018-02-03T02:28:09.361Z,4.59
2018-02-03T02:29:09.374Z,4.54
2018-02-03T02:30:09.366Z,4.51
2018-02-03T02:31:09.377Z,4.54
2018-02-03T02:32:09.368Z,4.46
2018-02-03T02:33:09.371Z,4.42
2018-02-03T02:34:09.369Z,4.36
2018-02-03T02:35:09.381Z,4.40
2018-02-03T02:36:09.377Z,4.52
2018-02-03T02:37:09.378Z,4.47
2018-02-03T02:38:09.377Z,4.54
2018-02-03T02:39:09.381Z,4.57
2018-02-03T02:40:09.384Z,4.57
2018-02-03T02:41:09.386Z,4.57
2018-02-03T02:42:09.387Z,4.57
2018-02-03T02:43:09.386Z,4.61
2018-02-03T02:44:09.386Z,4.55
2018-02-03T02:45:09.390Z,4.59
2018-02-03T02:46:09.390Z,4.55
2018-02-03T02:47:09.403Z,4.58
2018-02-03T02:48:09.395Z,4.59
2018-02-03T02:49:09.395Z,4.73
2018-02-03T02:50:09.402Z,4.72
2018-02-03T02:51:09.401Z,4.62
2018-02-03T02:52:09.400Z,4.64
2018-02-03T02:53:09.407Z,4.69
2018-02-03T02:54:09.405Z,4.64
2018-02-03T02:55:09.403Z,4.72
2018-02-03T02:56:09.406Z,4.64
2018-02-03T02:57:09.406Z,4.65
2018-02-03T02:58:09.417Z,4.69
2018-02-03T02:59:09.408Z,4.57
2018-02-03T03:00:09.415Z,4.54
2018-02-03T03:01:09.416Z,4.52
2018-02-03T03:02:09.419Z,4.51
2018-02-03T03:03:09.412Z,4.54
2018-02-03T03:04:09.418Z,4.52
2018-02-03T03:05:09.438Z,4.42
2018-02-03T03:06:09.427Z,4.37
2018-02-03T03:07:09.423Z,4.43
2018-02-03T03:08:09.431Z,4.37
2018-02-03T03:09:09.433Z,4.36
2018-02-03T03:10:09.427Z,4.26
2018-02-03T03:11:09.436Z,4.25
2018-02-03T03:12:09.447Z,4.28
2018-02-03T03:13:09.439Z,4.29
2018-02-03T03:14:09.435Z,4.22
2018-02-03T03:15:09.468Z,4.32
2018-02-03T03:16:09.441Z,4.24
2018-02-03T03:17:09.441Z,4.24
2018-02-03T03:18:09.441Z,4.22
2018-02-03T03:19:09.447Z,4.24
2018-02-03T03:20:09.448Z,4.19
2018-02-03T03:21:09.446Z,4.26
2018-02-03T03:22:09.449Z,4.22
2018-02-03T03:23:09.453Z,4.22
2018-02-03T03:24:09.453Z,4.24
2018-02-03T03:25:09.477Z,4.22
2018-02-03T03:26:09.454Z,4.25
2018-02-03T03:27:09.457Z,4.28
2018-02-03T03:28:09.461Z,4.25
2018-02-03T03:29:09.455Z,4.25
2018-02-03T03:30:09.470Z,4.28
2018-02-03T03:31:09.461Z,4.29
2018-02-03T03:32:09.467Z,4.29
2018-02-03T03:33:09.490Z,4.21
2018-02-03T03:34:09.472Z,4.28
2018-02-03T03:35:09.491Z,4.29
2018-02-03T03:36:09.475Z,4.25
2018-02-03T03:37:09.469Z,4.16
2018-02-03T03:38:09.472Z,4.22
2018-02-03T03:39:09.478Z,4.12
2018-02-03T03:40:09.475Z,4.12
2018-02-03T03:41:09.484Z,4.21
2018-02-03T03:42:09.478Z,4.18
2018-02-03T03:43:09.483Z,4.15
2018-02-03T03:44:09.486Z,4.10
2018-02-03T03:45:09.488Z,4.08
2018-02-03T03:46:09.483Z,4.16
2018-02-03T03:47:09.485Z,4.16
2018-02-03T03:48:09.485Z,4.14
2018-02-03T03:49:09.491Z,4.21
2018-02-03T03:50:09.489Z,4.24
2018-02-03T03:51:09.494Z,4.14
2018-02-03T03:52:09.496Z,4.21
2018-02-03T03:53:09.498Z,4.15
2018-02-03T03:54:09.496Z,4.15
2018-02-03T03:55:09.499Z,4.16
2018-02-03T03:56:09.499Z,4.10
2018-02-03T03:57:09.500Z,4.21
2018-02-03T03:58:09.503Z,4.24
2018-02-03T03:59:09.507Z,4.29
2018-02-03T04:00:09.510Z,4.32
2018-02-03T04:01:09.504Z,4.26
2018-02-03T04:02:09.512Z,4.29
2018-02-03T04:03:09.510Z,4.34
2018-02-03T04:04:09.516Z,4.39
2018-02-03T04:05:09.526Z,4.39
2018-02-03T04:06:09.518Z,4.32
2018-02-03T04:07:09.511Z,4.33
2018-02-03T04:08:09.515Z,4.32
2018-02-03T04:09:09.522Z,4.33
2018-02-03T04:10:09.519Z,4.25
2018-02-03T04:11:09.522Z,4.34
2018-02-03T04:12:09.526Z,4.34
2018-02-03T04:13:09.529Z,4.36
2018-02-03T04:14:09.529Z,4.40
2018-02-03T04:15:09.529Z,4.37
2018-02-03T04:16:09.531Z,4.37
2018-02-03T04:17:09.532Z,4.46
2018-02-03T04:18:09.532Z,4.44
2018-02-03T04:19:09.536Z,4.40
2018-02-03T04:20:09.539Z,4.50
2018-02-03T04:21:09.535Z,4.37
2018-02-03T04:22:09.538Z,4.40
2018-02-03T04:23:09.540Z,4.39
2018-02-03T04:24:09.541Z,4.40
2018-02-03T04:25:09.547Z,4.44
2018-02-03T04:26:09.546Z,4.40
2018-02-03T04:27:09.546Z,4.40
2018-02-03T04:28:09.549Z,4.47
2018-02-03T04:29:09.548Z,4.40
2018-02-03T04:30:09.555Z,4.40
2018-02-03T04:31:09.553Z,4.33
2018-02-03T04:32:09.560Z,4.24
2018-02-03T04:33:09.560Z,4.28
2018-02-03T04:34:09.559Z,4.26
2018-02-03T04:35:09.573Z,4.25
2018-02-03T04:36:09.560Z,4.19
2018-02-03T04:37:09.563Z,4.18
2018-02-03T04:38:09.567Z,4.21
2018-02-03T04:39:09.564Z,4.25
2018-02-03T04:40:09.571Z,4.21
2018-02-03T04:41:09.568Z,4.24
2018-02-03T04:42:09.574Z,4.25
2018-02-03T04:43:09.569Z,4.25
2018-02-03T04:44:09.575Z,4.22
2018-02-03T04:45:09.574Z,4.34
2018-02-03T04:46:09.580Z,4.36
2018-02-03T04:47:09.577Z,4.36
2018-02-03T04:48:09.578Z,4.32
2018-02-03T04:49:09.576Z,4.39
2018-02-03T04:50:09.580Z,4.34
2018-02-03T04:51:09.587Z,4.28
2018-02-03T04:52:09.585Z,4.29
2018-02-03T04:53:09.590Z,4.25
2018-02-03T04:54:09.604Z,4.24
2018-02-03T04:55:09.589Z,4.28
2018-02-03T04:56:09.597Z,4.34
2018-02-03T04:57:09.595Z,4.28
2018-02-03T04:58:09.596Z,4.25
2018-02-03T04:59:09.598Z,4.24
2018-02-03T05:00:09.597Z,4.18
2018-02-03T05:01:09.612Z,4.14
2018-02-03T05:02:09.603Z,4.12
2018-02-03T05:03:09.606Z,4.21
2018-02-03T05:04:09.603Z,4.12
2018-02-03T05:05:09.610Z,4.14
2018-02-03T05:06:09.617Z,4.16
2018-02-03T05:07:09.608Z,4.12
2018-02-03T05:08:09.603Z,4.21
2018-02-03T05:09:09.614Z,4.22
2018-02-03T05:10:09.614Z,4.16
2018-02-03T05:11:09.611Z,4.15
2018-02-03T05:12:09.614Z,4.21
2018-02-03T05:13:09.619Z,4.21
2018-02-03T05:14:09.628Z,4.21
2018-02-03T05:15:10.643Z,4.14
2018-02-03T05:16:11.282Z,4.15
2018-02-03T05:17:09.641Z,4.10
2018-02-03T05:18:09.629Z,4.15
2018-02-03T05:19:09.627Z,4.15
2018-02-03T05:20:09.628Z,4.16
2018-02-03T05:21:09.629Z,4.19
2018-02-03T05:22:09.634Z,4.10
2018-02-03T05:23:09.635Z,4.03
2018-02-03T05:24:09.636Z,4.00
2018-02-03T05:25:09.635Z,4.03
2018-02-03T05:26:09.636Z,4.04
2018-02-03T05:27:09.644Z,4.06
2018-02-03T05:28:09.649Z,4.01
2018-02-03T05:29:09.640Z,4.03
2018-02-03T05:30:09.645Z,4.12
2018-02-03T05:31:09.645Z,4.07
2018-02-03T05:32:09.646Z,4.01
2018-02-03T05:33:09.648Z,4.04
2018-02-03T05:34:09.652Z,4.16
2018-02-03T05:35:09.650Z,4.14
2018-02-03T05:36:09.654Z,4.10
2018-02-03T05:37:09.652Z,4.08
2018-02-03T05:38:09.667Z,4.03
2018-02-03T05:39:09.655Z,4.10
2018-02-03T05:40:09.665Z,4.14
2018-02-03T05:41:09.672Z,4.15
2018-02-03T05:42:09.663Z,4.15
2018-02-03T05:43:09.659Z,4.18
2018-02-03T05:44:09.660Z,4.12
2018-02-03T05:45:09.664Z,4.22
2018-02-03T05:46:09.668Z,4.19
2018-02-03T05:47:09.667Z,4.21
2018-02-03T05:48:09.679Z,4.29
2018-02-03T05:49:09.668Z,4.28
2018-02-03T05:50:09.668Z,4.28
2018-02-03T05:51:09.668Z,4.26
2018-02-03T05:52:09.677Z,4.15
2018-02-03T05:53:09.677Z,4.15
2018-02-03T05:54:09.672Z,4.12
2018-02-03T05:55:09.682Z,4.14
2018-02-03T05:56:09.698Z,4.18
2018-02-03T05:57:09.679Z,4.16
2018-02-03T05:58:09.680Z,4.12
2018-02-03T05:59:09.685Z,4.19
2018-02-03T06:00:09.685Z,4.24
2018-02-03T06:01:09.687Z,4.26
2018-02-03T06:02:09.692Z,4.28
2018-02-03T06:03:09.719Z,4.25
2018-02-03T06:04:09.691Z,4.14
2018-02-03T06:05:09.694Z,4.14
2018-02-03T06:06:09.699Z,4.18
2018-02-03T06:07:09.696Z,4.16
2018-02-03T06:08:09.697Z,4.06
2018-02-03T06:09:09.697Z,4.04
2018-02-03T06:10:09.695Z,3.98
2018-02-03T06:11:09.700Z,3.89
2018-02-03T06:12:09.700Z,3.88
2018-02-03T06:13:09.705Z,3.82
2018-02-03T06:14:09.703Z,3.72
2018-02-03T06:15:09.706Z,3.76
2018-02-03T06:16:09.706Z,3.86
2018-02-03T06:17:09.716Z,3.71
2018-02-03T06:18:09.712Z,3.82
2018-02-03T06:19:09.712Z,3.80
2018-02-03T06:20:09.717Z,3.79
2018-02-03T06:21:09.726Z,3.83
2018-02-03T06:22:09.718Z,3.82
2018-02-03T06:23:09.717Z,3.71
2018-02-03T06:24:09.719Z,3.80
2018-02-03T06:25:09.722Z,3.86
2018-02-03T06:26:09.722Z,3.86
2018-02-03T06:27:09.720Z,3.90
2018-02-03T06:28:09.728Z,3.88
2018-02-03T06:29:09.724Z,3.89
2018-02-03T06:30:09.724Z,4.00
2018-02-03T06:31:09.723Z,3.96
2018-02-03T06:32:09.729Z,3.96
2018-02-03T06:33:09.726Z,3.86
2018-02-03T06:34:09.733Z,3.90
2018-02-03T06:35:09.727Z,3.90
2018-02-03T06:36:09.736Z,3.94
2018-02-03T06:37:09.734Z,3.88
2018-02-03T06:38:09.737Z,3.86
2018-02-03T06:39:09.734Z,3.96
2018-02-03T06:40:09.740Z,3.94
2018-02-03T06:41:09.740Z,3.88
2018-02-03T06:42:09.745Z,3.89
2018-02-03T06:43:09.738Z,3.98
2018-02-03T06:44:09.740Z,3.98
2018-02-03T06:45:09.747Z,3.96
2018-02-03T06:46:09.747Z,3.90
2018-02-03T06:47:09.747Z,4.03
2018-02-03T06:48:09.752Z,4.06
2018-02-03T06:49:09.750Z,4.04
2018-02-03T06:50:09.747Z,4.08
2018-02-03T06:51:09.755Z,4.10
2018-02-03T06:52:09.752Z,4.10
2018-02-03T06:53:09.761Z,4.16
2018-02-03T06:54:09.760Z,4.15
2018-02-03T06:55:09.759Z,4.21
2018-02-03T06:56:09.763Z,4.18
2018-02-03T06:57:09.767Z,4.22
2018-02-03T06:58:09.762Z,4.22
2018-02-03T06:59:09.764Z,4.33
2018-02-03T07:00:09.778Z,4.28
2018-02-03T07:01:09.766Z,4.34
2018-02-03T07:02:09.764Z,4.29
2018-02-03T07:03:09.776Z,4.34
2018-02-03T07:04:09.772Z,4.34
2018-02-03T07:05:09.774Z,4.28
2018-02-03T07:06:09.773Z,4.36
2018-02-03T07:07:09.776Z,4.39
2018-02-03T07:08:09.796Z,4.37
2018-02-03T07:09:09.775Z,4.40
2018-02-03T07:10:09.780Z,4.40
2018-02-03T07:11:09.782Z,4.40
2018-02-03T07:12:09.784Z,4.40
2018-02-03T07:13:09.787Z,4.43
2018-02-03T07:14:09.801Z,4.36
2018-02-03T07:15:09.791Z,4.44
2018-02-03T07:16:09.796Z,4.50
2018-02-03T07:17:09.798Z,4.51
2018-02-03T07:18:09.790Z,4.50
2018-02-03T07:19:09.795Z,4.37
2018-02-03T07:20:09.795Z,4.44
2018-02-03T07:21:09.800Z,4.44
2018-02-03T07:22:09.804Z,4.39
2018-02-03T07:23:09.798Z,4.37
2018-02-03T07:24:09.800Z,4.47
2018-02-03T07:25:09.812Z,4.55
2018-02-03T07:26:09.803Z,4.54
2018-02-03T07:27:09.804Z,4.57
2018-02-03T07:28:09.823Z,4.59
2018-02-03T07:29:09.807Z,4.64
2018-02-03T07:30:09.811Z,4.59
2018-02-03T07:31:09.808Z,4.73
2018-02-03T07:32:09.831Z,4.72
2018-02-03T07:33:09.812Z,4.77
2018-02-03T07:34:09.818Z,4.77
2018-02-03T07:35:09.817Z,4.76
2018-02-03T07:36:09.819Z,4.86
2018-02-03T07:37:09.828Z,4.86
2018-02-03T07:38:09.823Z,4.79
2018-02-03T07:39:09.847Z,4.72
2018-02-03T07:40:09.824Z,4.80
2018-02-03T07:41:09.826Z,4.73
2018-02-03T07:42:09.831Z,4.73
2018-02-03T07:43:09.834Z,4.89
2018-02-03T07:44:09.833Z,4.92
2018-02-03T07:45:09.833Z,4.89
2018-02-03T07:46:09.838Z,4.95
2018-02-03T07:47:09.833Z,5.05
2018-02-03T07:48:09.836Z,4.99
2018-02-03T07:49:11.346Z,5.02
2018-02-03T07:50:09.852Z,5.07
2018-02-03T07:51:09.840Z,5.04
2018-02-03T07:52:09.843Z,5.12
2018-02-03T07:53:10.627Z,5.16
2018-02-03T07:54:09.851Z,5.19
2018-02-03T07:55:09.855Z,5.13
2018-02-03T07:56:09.865Z,5.25
2018-02-03T07:57:09.856Z,5.27
2018-02-03T07:58:09.860Z,5.22
2018-02-03T07:59:09.874Z,5.27
2018-02-03T08:00:09.859Z,5.20
2018-02-03T08:01:09.888Z,5.23
2018-02-03T08:02:09.890Z,5.30
2018-02-03T08:03:09.868Z,5.23
2018-02-03T08:04:09.867Z,5.37
2018-02-03T08:05:09.873Z,5.27
2018-02-03T08:06:09.864Z,5.32
2018-02-03T08:07:09.888Z,5.35
2018-02-03T08:08:09.888Z,5.46
2018-02-03T08:09:09.885Z,5.45
2018-02-03T08:10:09.878Z,5.55
2018-02-03T08:11:09.894Z,5.52
2018-02-03T08:12:09.895Z,5.48
2018-02-03T08:13:09.884Z,5.66
2018-02-03T08:14:09.888Z,5.60
2018-02-03T08:15:09.892Z,5.56
2018-02-03T08:16:09.932Z,5.53
2018-02-03T08:17:09.918Z,5.50
2018-02-03T08:18:09.902Z,5.52
2018-02-03T08:19:09.900Z,5.53
2018-02-03T08:20:09.898Z,5.52
2018-02-03T08:21:09.896Z,5.53
2018-02-03T08:22:09.919Z,5.50
2018-02-03T08:23:09.905Z,5.32
2018-02-03T08:24:09.912Z,5.30
2018-02-03T08:25:09.902Z,5.23
2018-02-03T08:26:09.910Z,5.10
2018-02-03T08:27:09.914Z,5.10
2018-02-03T08:28:09.917Z,5.07
2018-02-03T08:29:09.930Z,5.05
2018-02-03T08:30:09.981Z,5.07
2018-02-03T08:31:09.926Z,5.13
2018-02-03T08:32:09.923Z,5.22
2018-02-03T08:33:09.926Z,5.16
2018-02-03T08:34:09.926Z,5.20
2018-02-03T08:35:09.932Z,5.19
2018-02-03T08:36:09.930Z,5.35
2018-02-03T08:37:09.935Z,5.32
2018-02-03T08:38:09.934Z,5.43
2018-02-03T08:39:09.939Z,5.43
2018-02-03T08:40:09.939Z,5.40
2018-02-03T08:41:09.945Z,5.38
2018-02-03T08:42:09.945Z,5.41
2018-02-03T08:43:09.949Z,5.37
2018-02-03T08:44:09.945Z,5.38
2018-02-03T08:45:09.952Z,5.38
2018-02-03T08:46:09.951Z,5.34
2018-02-03T08:47:09.959Z,5.34
2018-02-03T08:48:09.954Z,5.41
2018-02-03T08:49:09.962Z,5.38
2018-02-03T08:50:09.964Z,5.38
2018-02-03T08:51:09.960Z,5.30
2018-02-03T08:52:09.963Z,5.35
2018-02-03T08:53:09.969Z,5.38
2018-02-03T08:54:09.974Z,5.38
2018-02-03T08:55:09.969Z,5.32
2018-02-03T08:56:09.972Z,5.40
2018-02-03T08:57:09.976Z,5.38
2018-02-03T08:58:09.976Z,5.34
2018-02-03T08:59:09.979Z,5.40
2018-02-03T09:00:09.982Z,5.34
2018-02-03T09:01:10.019Z,5.34
2018-02-03T09:02:09.982Z,5.28
2018-02-03T09:03:09.988Z,5.38
2018-02-03T09:04:09.991Z,5.41
2018-02-03T09:05:09.989Z,5.46
2018-02-03T09:06:09.997Z,5.49
2018-02-03T09:07:10.703Z,5.46
2018-02-03T09:08:10.007Z,5.50
2018-02-03T09:09:09.999Z,5.53
2018-02-03T09:10:10.000Z,5.56
2018-02-03T09:11:10.007Z,5.52
2018-02-03T09:12:10.007Z,5.57
2018-02-03T09:13:10.012Z,5.64
2018-02-03T09:14:10.020Z,5.71
2018-02-03T09:15:10.016Z,5.82
2018-02-03T09:16:10.018Z,5.75
2018-02-03T09:17:10.016Z,5.88
2018-02-03T09:18:10.024Z,5.88
2018-02-03T09:19:10.022Z,5.89
2018-02-03T09:20:10.034Z,6.00
2018-02-03T09:21:10.023Z,5.98
2018-02-03T09:22:10.029Z,5.89
2018-02-03T09:23:10.030Z,6.03
2018-02-03T09:24:10.035Z,5.98
2018-02-03T09:25:10.037Z,5.96
2018-02-03T09:26:10.042Z,6.00
2018-02-03T09:27:10.056Z,6.00
2018-02-03T09:28:10.075Z,6.07
2018-02-03T09:29:10.059Z,6.03
2018-02-03T09:30:10.048Z,6.14
2018-02-03T09:31:10.057Z,6.16
2018-02-03T09:32:10.056Z,6.11
2018-02-03T09:33:10.061Z,6.11
2018-02-03T09:34:10.062Z,6.13
2018-02-03T09:35:10.063Z,6.09
2018-02-03T09:36:10.064Z,6.04
2018-02-03T09:37:10.070Z,6.03
2018-02-03T09:38:10.087Z,6.04
2018-02-03T09:39:10.072Z,5.98
2018-02-03T09:40:10.072Z,6.01
2018-02-03T09:41:10.076Z,6.09
2018-02-03T09:42:10.076Z,6.07
2018-02-03T09:43:10.088Z,6.14
2018-02-03T09:44:10.082Z,6.13
2018-02-03T09:45:10.091Z,6.29
2018-02-03T09:46:10.088Z,6.25
2018-02-03T09:47:10.106Z,6.21
2018-02-03T09:48:10.093Z,6.36
2018-02-03T09:49:10.090Z,6.30
2018-02-03T09:50:10.093Z,6.26
2018-02-03T09:51:10.101Z,6.38
2018-02-03T09:52:10.105Z,6.28
2018-02-03T09:53:10.110Z,6.29
2018-02-03T09:54:10.112Z,6.35
2018-02-03T09:55:10.111Z,6.46
2018-02-03T09:56:10.108Z,6.41
2018-02-03T09:57:10.122Z,6.58
2018-02-03T09:58:10.122Z,6.59
2018-02-03T09:59:10.122Z,6.63
2018-02-03T10:00:10.122Z,6.66
2018-02-03T10:01:10.172Z,6.77
2018-02-03T10:02:10.129Z,6.77
2018-02-03T10:03:10.133Z,6.76
2018-02-03T10:04:10.135Z,6.69
2018-02-03T10:05:10.139Z,6.54
2018-02-03T10:06:10.137Z,6.56
2018-02-03T10:07:10.146Z,6.53
2018-02-03T10:08:10.153Z,6.41
2018-02-03T10:09:10.150Z,6.46
2018-02-03T10:10:10.153Z,6.44
2018-02-03T10:11:10.157Z,6.56
2018-02-03T10:12:10.155Z,6.59
2018-02-03T10:13:10.164Z,6.68
2018-02-03T10:14:10.169Z,6.81
2018-02-03T10:15:10.158Z,6.79
2018-02-03T10:16:10.203Z,6.79
2018-02-03T10:17:10.173Z,6.76
2018-02-03T10:18:10.176Z,6.76
2018-02-03T10:19:10.177Z,6.86
2018-02-03T10:20:10.181Z,6.89
2018-02-03T10:21:10.185Z,6.87
2018-02-03T10:22:10.188Z,6.95
2018-02-03T10:23:10.184Z,7.05
2018-02-03T10:24:10.248Z,7.07
2018-02-03T10:25:10.193Z,7.13
2018-02-03T10:26:10.195Z,7.08
2018-02-03T10:27:10.201Z,7.16
2018-02-03T10:28:10.199Z,7.19
2018-02-03T10:29:10.215Z,7.31
2018-02-03T10:30:10.215Z,7.40
2018-02-03T10:31:10.215Z,7.44
2018-02-03T10:32:10.218Z,7.42
2018-02-03T10:33:10.219Z,7.49
2018-02-03T10:34:10.228Z,7.53
2018-02-03T10:35:10.223Z,7.52
2018-02-03T10:36:10.227Z,7.53
2018-02-03T10:37:10.231Z,7.56
2018-02-03T10:38:10.235Z,7.71
2018-02-03T10:39:10.239Z,7.82
2018-02-03T10:40:10.244Z,7.97
2018-02-03T10:41:10.247Z,7.96
2018-02-03T10:42:10.253Z,8.10
2018-02-03T10:43:10.254Z,8.14
2018-02-03T10:44:10.260Z,8.15
2018-02-03T10:45:10.260Z,8.30
2018-02-03T10:46:10.267Z,8.42
2018-02-03T10:47:10.264Z,8.57
2018-02-03T10:48:10.269Z,8.66
2018-02-03T10:49:11.186Z,8.69
2018-02-03T10:50:10.275Z,8.69
2018-02-03T10:51:10.283Z,8.60
2018-02-03T10:52:10.289Z,8.60
2018-02-03T10:53:10.291Z,8.42
2018-02-03T10:54:10.296Z,8.53
2018-02-03T10:55:10.305Z,8.29
2018-02-03T10:56:10.308Z,8.08
2018-02-03T10:57:10.309Z,7.96
2018-02-03T10:58:10.317Z,7.93
2018-02-03T10:59:10.334Z,8.10
2018-02-03T11:00:10.350Z,8.08
2018-02-03T11:01:10.336Z,8.07
2018-02-03T11:02:10.338Z,8.12
2018-02-03T11:03:10.336Z,8.12
2018-02-03T11:04:10.367Z,8.11
2018-02-03T11:05:10.350Z,8.07
2018-02-03T11:06:10.356Z,7.97
2018-02-03T11:07:10.364Z,8.17
2018-02-03T11:08:10.391Z,8.28
2018-02-03T11:09:10.367Z,8.39
2018-02-03T11:10:10.375Z,8.39
2018-02-03T11:11:10.384Z,8.42
2018-02-03T11:12:10.384Z,8.51
2018-02-03T11:13:10.391Z,8.58
2018-02-03T11:14:10.396Z,8.60
2018-02-03T11:15:10.395Z,8.57
2018-02-03T11:16:10.400Z,8.72
2018-02-03T11:17:10.423Z,8.81
2018-02-03T11:18:10.412Z,8.84
2018-02-03T11:19:10.423Z,8.73
2018-02-03T11:20:10.423Z,8.96
2018-02-03T11:21:10.430Z,9.09
2018-02-03T11:22:10.437Z,9.06
2018-02-03T11:23:10.436Z,9.15
2018-02-03T11:24:10.465Z,9.20
2018-02-03T11:25:10.449Z,9.20
2018-02-03T11:26:10.500Z,9.01
2018-02-03T11:27:10.462Z,9.02
2018-02-03T11:28:10.470Z,8.93
2018-02-03T11:29:10.470Z,8.87
2018-02-03T11:30:10.478Z,8.78
2018-02-03T11:31:10.480Z,8.99
2018-02-03T11:32:10.488Z,9.02
2018-02-03T11:33:10.493Z,9.06
2018-02-03T11:34:10.497Z,9.05
2018-02-03T11:35:10.507Z,8.86
2018-02-03T11:36:10.515Z,8.78
2018-02-03T11:37:10.525Z,8.68
2018-02-03T11:38:10.523Z,8.71
2018-02-03T11:39:10.524Z,8.76
2018-02-03T11:40:10.530Z,8.83
2018-02-03T11:41:10.541Z,8.84
2018-02-03T11:42:10.546Z,8.86
2018-02-03T11:43:10.546Z,8.90
2018-02-03T11:44:10.553Z,8.73
2018-02-03T11:45:10.562Z,8.57
2018-02-03T11:46:10.566Z,8.62
2018-02-03T11:47:10.573Z,8.48
2018-02-03T11:48:10.573Z,8.42
2018-02-03T11:49:10.582Z,8.40
2018-02-03T11:50:10.589Z,8.21
2018-02-03T11:51:10.589Z,8.12
2018-02-03T11:52:10.593Z,8.02
2018-02-03T11:53:10.598Z,8.03
2018-02-03T11:54:10.607Z,7.97
2018-02-03T11:55:10.611Z,7.92
2018-02-03T11:56:10.615Z,7.97
2018-02-03T11:57:10.624Z,7.94
2018-02-03T11:58:10.628Z,7.99
2018-02-03T11:59:10.635Z,8.04
2018-02-03T12:00:10.635Z,8.18
2018-02-03T12:01:10.637Z,8.32
2018-02-03T12:02:10.643Z,8.44
2018-02-03T12:03:11.188Z,8.57
2018-02-03T12:04:10.654Z,8.68
2018-02-03T12:05:10.660Z,8.55
2018-02-03T12:06:10.663Z,8.69
2018-02-03T12:07:10.673Z,8.87
2018-02-03T12:08:10.671Z,8.81
2018-02-03T12:09:10.682Z,8.94
2018-02-03T12:10:10.687Z,8.86
2018-02-03T12:11:10.726Z,8.72
2018-02-03T12:12:10.698Z,8.91
2018-02-03T12:13:10.703Z,8.87
2018-02-03T12:14:11.696Z,8.83
2018-02-03T12:15:10.713Z,8.86
2018-02-03T12:16:10.715Z,8.60
2018-02-03T12:17:10.719Z,8.69
2018-02-03T12:18:10.723Z,8.60
2018-02-03T12:19:10.731Z,8.54
2018-02-03T12:20:10.752Z,8.44
2018-02-03T12:21:10.737Z,8.40
2018-02-03T12:22:10.739Z,8.30
2018-02-03T12:23:10.752Z,8.11
2018-02-03T12:24:10.752Z,8.00
2018-02-03T12:25:10.755Z,8.10
2018-02-03T12:26:10.763Z,8.03
2018-02-03T12:27:10.768Z,7.97
2018-02-03T12:28:10.768Z,7.92
2018-02-03T12:29:10.778Z,7.94
2018-02-03T12:30:10.778Z,8.12
2018-02-03T12:31:10.787Z,8.11
2018-02-03T12:32:10.786Z,8.12
2018-02-03T12:33:10.800Z,8.15
2018-02-03T12:34:10.795Z,8.03
2018-02-03T12:35:10.802Z,8.11
2018-02-03T12:36:10.809Z,8.12
2018-02-03T12:37:10.808Z,8.00
2018-02-03T12:38:10.814Z,8.10
2018-02-03T12:39:10.821Z,7.92
2018-02-03T12:40:10.825Z,8.03
2018-02-03T12:41:10.824Z,7.97
2018-02-03T12:42:10.831Z,8.00
2018-02-03T12:43:11.699Z,8.08
2018-02-03T12:44:10.840Z,8.03
2018-02-03T12:45:10.845Z,7.93
2018-02-03T12:46:10.850Z,7.90
2018-02-03T12:47:10.852Z,7.81
2018-02-03T12:48:10.854Z,7.85
2018-02-03T12:49:10.862Z,7.79
2018-02-03T12:50:10.864Z,7.82
2018-02-03T12:51:10.903Z,7.87
2018-02-03T12:52:10.872Z,7.82
2018-02-03T12:53:10.872Z,7.84
2018-02-03T12:54:10.884Z,7.79
2018-02-03T12:55:10.882Z,7.79
2018-02-03T12:56:10.891Z,7.81
2018-02-03T12:57:10.889Z,7.79
2018-02-03T12:58:10.895Z,7.93
2018-02-03T12:59:10.908Z,7.94
2018-02-03T13:00:10.905Z,8.07
2018-02-03T13:01:10.906Z,8.15
2018-02-03T13:02:10.913Z,8.26
2018-02-03T13:03:10.920Z,8.29
2018-02-03T13:04:10.922Z,8.30
2018-02-03T13:05:10.923Z,8.30
2018-02-03T13:06:10.931Z,8.29
2018-02-03T13:07:10.928Z,8.36
2018-02-03T13:08:10.939Z,8.35
2018-02-03T13:09:10.937Z,8.44
2018-02-03T13:10:10.946Z,8.32
2018-02-03T13:11:10.942Z,8.29
2018-02-03T13:12:10.954Z,8.12
2018-02-03T13:13:10.955Z,7.93
2018-02-03T13:14:10.967Z,8.10
2018-02-03T13:15:10.964Z,8.07
2018-02-03T13:16:10.986Z,8.08
2018-02-03T13:17:10.974Z,8.11
2018-02-03T13:18:10.978Z,7.93